Time;durP1;ratioP1;P1;durP2;ratioP2;P2;SDS_P1;SDS_P2;PMS_P1;PMS_P2;Temp;Humidity;BMP_temperature;BMP_pressure;BME280_temperature;BME280_humidity;BME280_pressure;Samples;Min_cycle;Max_cycle;Signal;HPM_P1;HPM_P2
2023/08/12 00:00:12;;;;;;;26.10;13.95;;;;;;;;;;4974507;28;20023;-77
2023/08/12 00:02:39;;;;;;;27.27;16.13;;;;;;;;;;4959548;28;20030;-76
2023/08/12 00:05:05;;;;;;;28.90;16.35;;;;;;;;;;4974421;28;20067;-78
2023/08/12 00:07:32;;;;;;;30.30;17.13;;;;;;;;;;4974640;28;20034;-77
2023/08/12 00:09:57;;;;;;;25.60;16.35;;;;;;;;;;4964823;28;20031;-77
2023/08/12 00:12:23;;;;;;;26.25;16.13;;;;;;;;;;4938706;28;20081;-77
2023/08/12 00:14:48;;;;;;;24.48;16.48;;;;;;;;;;4960842;28;20038;-77
2023/08/12 00:17:13;;;;;;;26.50;15.10;;;;;;;;;;4955949;28;20469;-77
2023/08/12 00:19:38;;;;;;;29.02;16.67;;;;;;;;;;4955941;29;20029;-76
2023/08/12 00:22:04;;;;;;;23.50;15.05;;;;;;;;;;4955817;29;20027;-77
2023/08/12 00:24:30;;;;;;;29.17;18.08;;;;;;;;;;4954002;29;20031;-77
2023/08/12 00:26:55;;;;;;;20.63;14.02;;;;;;;;;;4954594;29;20038;-77
2023/08/12 00:29:21;;;;;;;31.85;16.52;;;;;;;;;;4938021;29;20062;-77
2023/08/12 00:31:46;;;;;;;22.13;13.93;;;;;;;;;;4954559;28;20030;-76
2023/08/12 00:34:11;;;;;;;28.27;15.73;;;;;;;;;;4954101;28;20031;-77
2023/08/12 00:36:37;;;;;;;20.92;13.43;;;;;;;;;;4954387;29;20081;-76
2023/08/12 00:39:03;;;;;;;19.77;12.00;;;;;;;;;;4949998;28;20035;-77
2023/08/12 00:41:29;;;;;;;24.88;15.45;;;;;;;;;;4938836;29;20541;-77
2023/08/12 00:43:54;;;;;;;20.25;12.38;;;;;;;;;;4954400;28;20035;-77
2023/08/12 00:46:24;;;;;;;28.48;16.30;;;;;;;;;;4954665;29;20028;-77
2023/08/12 00:48:49;;;;;;;21.83;12.48;;;;;;;;;;4954286;28;20027;-77
2023/08/12 00:51:15;;;;;;;21.65;11.48;;;;;;;;;;4937927;29;20375;-77
2023/08/12 00:53:42;;;;;;;28.77;17.02;;;;;;;;;;4938291;29;20050;-77
2023/08/12 00:56:07;;;;;;;23.75;13.18;;;;;;;;;;4954422;29;20023;-76
2023/08/12 00:58:32;;;;;;;31.70;18.75;;;;;;;;;;4954496;29;20123;-77
2023/08/12 01:00:57;;;;;;;24.67;13.73;;;;;;;;;;4955468;28;20027;-77
2023/08/12 01:03:23;;;;;;;20.00;12.50;;;;;;;;;;4954848;28;20054;-77
2023/08/12 01:05:48;;;;;;;17.75;10.95;;;;;;;;;;4974789;28;20023;-77
2023/08/12 01:08:14;;;;;;;16.45;10.70;;;;;;;;;;4969252;28;20023;-77
2023/08/12 01:10:43;;;;;;;20.85;13.00;;;;;;;;;;4954015;29;20019;-77
2023/08/12 01:13:26;;;;;;;17.05;11.82;;;;;;;;;;4953972;28;20043;-77
2023/08/12 01:15:53;;;;;;;16.55;10.32;;;;;;;;;;4954051;29;20039;-77
2023/08/12 01:18:19;;;;;;;16.98;9.90;;;;;;;;;;4953733;28;20078;-77
2023/08/12 01:20:45;;;;;;;15.52;8.48;;;;;;;;;;4954106;29;20425;-76
2023/08/12 01:23:14;;;;;;;17.80;10.32;;;;;;;;;;4953657;29;20090;-77
2023/08/12 01:25:40;;;;;;;12.95;7.95;;;;;;;;;;4953672;28;20078;-77
2023/08/12 01:28:06;;;;;;;17.38;9.05;;;;;;;;;;4953589;29;20490;-77
2023/08/12 01:30:32;;;;;;;14.05;8.95;;;;;;;;;;4953912;29;20050;-76
2023/08/12 01:33:14;;;;;;;20.30;12.63;;;;;;;;;;4953836;29;20031;-77
2023/08/12 01:35:41;;;;;;;18.67;11.15;;;;;;;;;;4951894;28;20444;-77
2023/08/12 01:38:09;;;;;;;24.73;14.38;;;;;;;;;;4972944;28;20034;-77
2023/08/12 01:40:35;;;;;;;15.98;10.80;;;;;;;;;;4973031;28;20030;-77
2023/08/12 01:43:03;;;;;;;18.60;10.50;;;;;;;;;;4973194;28;20425;-77
2023/08/12 01:45:30;;;;;;;26.55;16.70;;;;;;;;;;4973196;28;20023;-76
2023/08/12 01:47:55;;;;;;;25.05;15.57;;;;;;;;;;4960412;28;20027;-77
2023/08/12 01:50:21;;;;;;;20.17;12.27;;;;;;;;;;4977300;28;20400;-76
2023/08/12 01:52:46;;;;;;;24.52;14.48;;;;;;;;;;4978020;28;20031;-77
2023/08/12 01:55:12;;;;;;;16.85;11.35;;;;;;;;;;4976427;28;20031;-77
2023/08/12 01:57:37;;;;;;;18.48;11.48;;;;;;;;;;4977020;28;20425;-77
2023/08/12 02:00:03;;;;;;;24.08;15.15;;;;;;;;;;4977479;28;20069;-77
2023/08/12 02:02:28;;;;;;;23.50;15.40;;;;;;;;;;4977537;28;20022;-77
2023/08/12 02:04:54;;;;;;;23.95;15.68;;;;;;;;;;4976250;28;20473;-77
2023/08/12 02:07:19;;;;;;;26.35;15.95;;;;;;;;;;4976985;28;20035;-77
2023/08/12 02:09:44;;;;;;;25.60;16.13;;;;;;;;;;4976378;28;20033;-77
2023/08/12 02:12:10;;;;;;;22.40;13.90;;;;;;;;;;4975791;28;20042;-77
2023/08/12 02:14:36;;;;;;;20.33;12.85;;;;;;;;;;4977495;28;20042;-76
2023/08/12 02:17:02;;;;;;;30.50;16.23;;;;;;;;;;4975799;28;20037;-77
2023/08/12 02:19:27;;;;;;;26.60;15.95;;;;;;;;;;4976121;28;20106;-77
2023/08/12 02:21:52;;;;;;;27.73;17.48;;;;;;;;;;4976502;28;20022;-76
2023/08/12 02:24:18;;;;;;;26.75;16.27;;;;;;;;;;4975665;28;20424;-77
2023/08/12 02:26:43;;;;;;;26.40;15.25;;;;;;;;;;4976856;28;20031;-76
2023/08/12 02:29:08;;;;;;;31.30;17.50;;;;;;;;;;4976052;28;20027;-76
2023/08/12 02:31:33;;;;;;;29.30;16.52;;;;;;;;;;4977324;28;20091;-76
2023/08/12 02:33:59;;;;;;;26.63;15.15;;;;;;;;;;4976908;28;20082;-76
2023/08/12 02:36:26;;;;;;;35.20;18.63;;;;;;;;;;4976153;28;20038;-76
2023/08/12 02:38:51;;;;;;;34.47;19.00;;;;;;;;;;4975801;28;20547;-76
2023/08/12 02:41:17;;;;;;;31.20;17.00;;;;;;;;;;4959465;28;20023;-77
2023/08/12 02:43:42;;;;;;;30.30;16.45;;;;;;;;;;4976676;28;20023;-76
2023/08/12 02:46:07;;;;;;;33.72;20.45;;;;;;;;;;4945915;28;20474;-76
2023/08/12 02:48:33;;;;;;;28.27;18.20;;;;;;;;;;4938100;29;20028;-76
2023/08/12 02:50:58;;;;;;;29.77;18.35;;;;;;;;;;4949346;29;20027;-76
2023/08/12 02:53:23;;;;;;;33.67;18.52;;;;;;;;;;4955974;29;20371;-77
2023/08/12 02:55:49;;;;;;;39.45;22.67;;;;;;;;;;4956300;28;20125;-76
2023/08/12 02:58:14;;;;;;;35.72;20.55;;;;;;;;;;4955695;28;20019;-77
2023/08/12 03:00:45;;;;;;;44.20;24.35;;;;;;;;;;4957053;29;20059;-76
2023/08/12 03:03:10;;;;;;;41.90;21.95;;;;;;;;;;4965809;28;20110;-76
2023/08/12 03:05:35;;;;;;;38.03;20.58;;;;;;;;;;4974830;28;20054;-77
2023/08/12 03:08:04;;;;;;;46.92;23.67;;;;;;;;;;4975311;28;20022;-76
2023/08/12 03:10:30;;;;;;;41.03;24.23;;;;;;;;;;4975176;28;20022;-76
2023/08/12 03:12:55;;;;;;;42.20;22.25;;;;;;;;;;4975059;28;20023;-76
2023/08/12 03:15:21;;;;;;;41.92;23.45;;;;;;;;;;4975079;28;20037;-76
2023/08/12 03:17:46;;;;;;;43.38;24.23;;;;;;;;;;4958855;28;20096;-77
2023/08/12 03:20:12;;;;;;;36.13;21.35;;;;;;;;;;4975171;28;20027;-76
2023/08/12 03:22:37;;;;;;;33.03;16.60;;;;;;;;;;4974851;28;20019;-77
2023/08/12 03:25:04;;;;;;;42.40;23.60;;;;;;;;;;4974750;28;20035;-76
2023/08/12 03:27:29;;;;;;;31.10;17.40;;;;;;;;;;4974878;28;20038;-77
2023/08/12 03:29:55;;;;;;;41.72;22.17;;;;;;;;;;4974654;28;20029;-77
2023/08/12 03:32:20;;;;;;;42.88;21.08;;;;;;;;;;4974484;28;20400;-76
2023/08/12 03:34:45;;;;;;;37.67;21.45;;;;;;;;;;4971047;28;20027;-77
2023/08/12 03:37:11;;;;;;;36.72;18.70;;;;;;;;;;4937657;29;20074;-76
2023/08/12 03:39:38;;;;;;;35.53;17.02;;;;;;;;;;4920133;29;20450;-76
2023/08/12 03:42:03;;;;;;;39.55;20.77;;;;;;;;;;4922691;29;20102;-76
2023/08/12 03:44:29;;;;;;;43.20;23.95;;;;;;;;;;4949280;28;20022;-76
2023/08/12 03:46:54;;;;;;;39.88;20.60;;;;;;;;;;4972018;28;20031;-77
2023/08/12 03:49:19;;;;;;;40.10;19.88;;;;;;;;;;4974677;28;20404;-77
2023/08/12 03:51:45;;;;;;;36.15;19.10;;;;;;;;;;4975160;28;20050;-77
2023/08/12 03:54:10;;;;;;;29.95;15.20;;;;;;;;;;4975883;28;20030;-77
2023/08/12 03:56:35;;;;;;;41.88;21.20;;;;;;;;;;4974321;28;20030;-77
2023/08/12 03:59:01;;;;;;;32.08;13.30;;;;;;;;;;4958343;28;20026;-76
2023/08/12 04:01:26;;;;;;;29.33;16.33;;;;;;;;;;4973725;28;20031;-77
2023/08/12 04:03:53;;;;;;;24.05;14.75;;;;;;;;;;4974406;28;20113;-77
2023/08/12 04:06:18;;;;;;;37.95;21.05;;;;;;;;;;4974077;28;20055;-77
2023/08/12 04:08:43;;;;;;;23.42;13.38;;;;;;;;;;4974573;28;20046;-76
2023/08/12 04:11:08;;;;;;;32.45;18.13;;;;;;;;;;4974703;28;20481;-76
2023/08/12 04:13:34;;;;;;;33.95;17.95;;;;;;;;;;4958111;28;20022;-76
2023/08/12 04:15:59;;;;;;;48.38;23.77;;;;;;;;;;4975702;28;20081;-77
2023/08/12 04:18:24;;;;;;;49.60;22.55;;;;;;;;;;4973823;28;20023;-76
2023/08/12 04:20:50;;;;;;;43.40;23.10;;;;;;;;;;4973561;28;20107;-77
2023/08/12 04:23:15;;;;;;;42.75;22.65;;;;;;;;;;4975070;28;20500;-76
2023/08/12 04:25:44;;;;;;;55.10;24.17;;;;;;;;;;4957708;28;20033;-77
2023/08/12 04:28:10;;;;;;;41.30;21.05;;;;;;;;;;4973927;28;20058;-76
2023/08/12 04:30:35;;;;;;;40.38;20.55;;;;;;;;;;4944449;28;20031;-77
2023/08/12 04:33:00;;;;;;;41.08;21.35;;;;;;;;;;4918941;29;20039;-76
2023/08/12 04:35:26;;;;;;;57.60;25.75;;;;;;;;;;4947727;28;20018;-76
2023/08/12 04:37:51;;;;;;;52.88;24.73;;;;;;;;;;4975168;28;20469;-76
2023/08/12 04:40:16;;;;;;;52.65;24.45;;;;;;;;;;5068862;23;20049;-75
2023/08/12 04:42:42;;;;;;;52.20;24.42;;;;;;;;;;4993888;28;20034;-75
2023/08/12 04:45:08;;;;;;;50.10;24.10;;;;;;;;;;4994788;28;20030;-75
2023/08/12 04:47:33;;;;;;;39.65;20.23;;;;;;;;;;4993726;28;20026;-75
2023/08/12 04:49:58;;;;;;;48.60;25.48;;;;;;;;;;4976932;28;20033;-75
2023/08/12 04:52:24;;;;;;;49.75;25.00;;;;;;;;;;4994505;28;20576;-75
2023/08/12 04:54:53;;;;;;;60.03;24.65;;;;;;;;;;5009045;28;20054;-75
2023/08/12 04:57:18;;;;;;;48.55;24.73;;;;;;;;;;5009393;28;20541;-75
2023/08/12 04:59:43;;;;;;;47.08;20.13;;;;;;;;;;4994491;28;20037;-75
2023/08/12 05:02:08;;;;;;;35.83;19.45;;;;;;;;;;5010615;28;20026;-75
2023/08/12 05:04:34;;;;;;;40.95;19.90;;;;;;;;;;5012394;28;20184;-75
2023/08/12 05:06:59;;;;;;;41.92;20.55;;;;;;;;;;5013834;28;20033;-75
2023/08/12 05:09:24;;;;;;;54.60;22.88;;;;;;;;;;5014059;28;20079;-75
2023/08/12 05:11:49;;;;;;;33.05;15.85;;;;;;;;;;5014040;28;20114;-75
2023/08/12 05:14:15;;;;;;;47.17;21.98;;;;;;;;;;5012449;28;20055;-75
2023/08/12 05:16:40;;;;;;;39.50;19.33;;;;;;;;;;5014160;28;20476;-75
2023/08/12 05:19:05;;;;;;;26.17;15.38;;;;;;;;;;5014102;28;20059;-75
2023/08/12 05:21:31;;;;;;;41.92;22.73;;;;;;;;;;5013719;28;20026;-75
2023/08/12 05:23:56;;;;;;;43.53;23.60;;;;;;;;;;5013444;28;20484;-75
2023/08/12 05:26:21;;;;;;;33.30;17.52;;;;;;;;;;5012745;28;20545;-75
2023/08/12 05:28:47;;;;;;;39.75;18.25;;;;;;;;;;5012436;28;20037;-75
2023/08/12 05:31:12;;;;;;;45.55;22.60;;;;;;;;;;5013667;28;20026;-75
2023/08/12 05:33:37;;;;;;;41.45;22.52;;;;;;;;;;5013063;28;20022;-75
2023/08/12 05:36:03;;;;;;;35.22;20.98;;;;;;;;;;5013436;28;20018;-75
2023/08/12 05:38:28;;;;;;;43.42;21.48;;;;;;;;;;5014192;28;20064;-75
2023/08/12 05:40:54;;;;;;;45.47;21.38;;;;;;;;;;4996059;28;20030;-75
2023/08/12 05:43:19;;;;;;;36.47;20.52;;;;;;;;;;5013786;28;20069;-75
2023/08/12 05:45:44;;;;;;;39.10;21.27;;;;;;;;;;5012557;28;20101;-75
2023/08/12 05:48:09;;;;;;;37.58;20.65;;;;;;;;;;5013659;28;20411;-76
2023/08/12 05:50:35;;;;;;;37.17;22.10;;;;;;;;;;5013106;28;20031;-75
2023/08/12 05:53:00;;;;;;;40.30;21.83;;;;;;;;;;5013122;28;20097;-75
2023/08/12 05:55:28;;;;;;;44.10;21.52;;;;;;;;;;5013814;28;20022;-75
2023/08/12 05:57:53;;;;;;;44.85;19.92;;;;;;;;;;5012527;28;20387;-75
2023/08/12 06:00:19;;;;;;;40.78;21.35;;;;;;;;;;5013413;28;20029;-75
2023/08/12 06:02:44;;;;;;;32.08;18.23;;;;;;;;;;5013691;28;20084;-75
2023/08/12 06:05:09;;;;;;;41.50;19.08;;;;;;;;;;5013085;28;20165;-75
2023/08/12 06:07:34;;;;;;;37.70;19.67;;;;;;;;;;4995810;28;20030;-75
2023/08/12 06:10:00;;;;;;;39.60;20.60;;;;;;;;;;5012258;28;20045;-75
2023/08/12 06:12:25;;;;;;;38.33;18.92;;;;;;;;;;5012368;28;20030;-75
2023/08/12 06:14:50;;;;;;;43.53;20.90;;;;;;;;;;4995381;28;20128;-75
2023/08/12 06:17:16;;;;;;;45.75;22.30;;;;;;;;;;5013609;28;20025;-75
2023/08/12 06:19:41;;;;;;;45.25;22.45;;;;;;;;;;5013305;28;20029;-75
2023/08/12 06:22:06;;;;;;;42.30;20.02;;;;;;;;;;4995737;28;20377;-75
2023/08/12 06:24:32;;;;;;;45.30;21.10;;;;;;;;;;5011747;28;20080;-75
2023/08/12 06:26:57;;;;;;;37.15;18.83;;;;;;;;;;5012110;28;20022;-75
2023/08/12 06:29:22;;;;;;;43.05;20.02;;;;;;;;;;5012332;28;20531;-75
2023/08/12 06:31:47;;;;;;;42.58;20.60;;;;;;;;;;5012279;28;20080;-75
2023/08/12 06:34:13;;;;;;;47.58;20.42;;;;;;;;;;5016257;28;20022;-75
2023/08/12 06:36:38;;;;;;;52.72;20.90;;;;;;;;;;5016155;28;20460;-76
2023/08/12 06:39:03;;;;;;;46.05;20.73;;;;;;;;;;5015326;28;20033;-75
2023/08/12 06:41:29;;;;;;;37.50;16.13;;;;;;;;;;5016400;28;20088;-75
2023/08/12 06:43:54;;;;;;;43.15;21.65;;;;;;;;;;5015015;28;20032;-74
2023/08/12 06:46:19;;;;;;;40.63;18.52;;;;;;;;;;5015194;28;20026;-75
2023/08/12 06:48:44;;;;;;;47.58;20.30;;;;;;;;;;5015856;28;20021;-75
2023/08/12 06:51:10;;;;;;;49.53;21.35;;;;;;;;;;5016004;28;20030;-74
2023/08/12 06:53:37;;;;;;;39.65;19.10;;;;;;;;;;5014579;28;20032;-74
2023/08/12 06:56:03;;;;;;;37.00;17.27;;;;;;;;;;5014426;28;20041;-75
2023/08/12 06:58:28;;;;;;;39.83;18.35;;;;;;;;;;5014816;28;20018;-76
2023/08/12 07:00:54;;;;;;;35.25;17.60;;;;;;;;;;5016025;28;20088;-76
2023/08/12 07:03:19;;;;;;;31.25;15.35;;;;;;;;;;5014822;28;20088;-76
2023/08/12 07:05:44;;;;;;;36.47;16.95;;;;;;;;;;5014261;28;20062;-75
2023/08/12 07:08:10;;;;;;;37.08;16.70;;;;;;;;;;5015706;28;20033;-76
2023/08/12 07:10:38;;;;;;;32.15;15.30;;;;;;;;;;4998297;28;20550;-76
2023/08/12 07:13:04;;;;;;;34.50;14.88;;;;;;;;;;5014643;28;20368;-76
2023/08/12 07:15:29;;;;;;;31.48;16.65;;;;;;;;;;5014882;28;20024;-76
2023/08/12 07:17:54;;;;;;;25.85;14.65;;;;;;;;;;5016432;28;20442;-76
2023/08/12 07:20:19;;;;;;;32.42;16.80;;;;;;;;;;5014430;28;20018;-76
2023/08/12 07:22:45;;;;;;;28.55;13.27;;;;;;;;;;5014981;28;20113;-76
2023/08/12 07:25:10;;;;;;;27.98;13.82;;;;;;;;;;5031142;28;20030;-76
2023/08/12 07:27:35;;;;;;;21.80;12.77;;;;;;;;;;5014452;28;20017;-76
2023/08/12 07:30:01;;;;;;;30.88;15.07;;;;;;;;;;5013810;28;20057;-76
2023/08/12 07:32:26;;;;;;;26.75;13.43;;;;;;;;;;5014565;28;20024;-76
2023/08/12 07:34:51;;;;;;;21.55;11.43;;;;;;;;;;5014980;28;20030;-76
2023/08/12 07:37:20;;;;;;;24.40;11.65;;;;;;;;;;5014418;28;20054;-76
2023/08/12 07:39:45;;;;;;;27.02;14.23;;;;;;;;;;5014338;28;20022;-76
2023/08/12 07:42:10;;;;;;;30.58;15.20;;;;;;;;;;5013540;28;20034;-76
2023/08/12 07:44:36;;;;;;;30.52;14.73;;;;;;;;;;4997343;28;20037;-77
2023/08/12 07:47:01;;;;;;;31.42;15.02;;;;;;;;;;5013921;28;20136;-76
2023/08/12 07:49:26;;;;;;;29.77;15.50;;;;;;;;;;5015139;28;20064;-76
2023/08/12 07:51:51;;;;;;;30.00;13.68;;;;;;;;;;5013902;28;20416;-76
2023/08/12 07:54:17;;;;;;;26.13;13.90;;;;;;;;;;5013315;28;20038;-76
2023/08/12 07:56:42;;;;;;;28.95;13.60;;;;;;;;;;4997744;28;20026;-76
2023/08/12 07:59:07;;;;;;;24.77;11.02;;;;;;;;;;4997456;28;20030;-76
2023/08/12 08:01:33;;;;;;;20.83;10.93;;;;;;;;;;5015072;28;20053;-76
2023/08/12 08:03:58;;;;;;;25.63;11.05;;;;;;;;;;4997137;28;20113;-76
2023/08/12 08:06:23;;;;;;;25.83;10.88;;;;;;;;;;5003035;28;20033;-76
2023/08/12 08:08:49;;;;;;;22.45;9.65;;;;;;;;;;4985670;28;20524;-76
2023/08/12 08:11:15;;;;;;;22.27;11.52;;;;;;;;;;4994280;28;20034;-76
2023/08/12 08:13:40;;;;;;;22.20;10.65;;;;;;;;;;4988346;28;20496;-76
2023/08/12 08:16:05;;;;;;;21.83;10.48;;;;;;;;;;5010440;28;20477;-76
2023/08/12 08:18:30;;;;;;;18.98;9.57;;;;;;;;;;4994231;28;20200;-76
2023/08/12 08:20:56;;;;;;;23.20;9.85;;;;;;;;;;5009729;28;20038;-76
2023/08/12 08:23:21;;;;;;;21.77;10.10;;;;;;;;;;5010293;28;20030;-76
2023/08/12 08:25:46;;;;;;;22.20;9.02;;;;;;;;;;5010306;28;20073;-76
2023/08/12 08:28:12;;;;;;;16.38;8.18;;;;;;;;;;4993746;28;20046;-76
2023/08/12 08:30:37;;;;;;;16.95;7.40;;;;;;;;;;5010179;28;20396;-76
2023/08/12 08:33:03;;;;;;;24.10;9.75;;;;;;;;;;5009361;28;20026;-76
2023/08/12 08:35:28;;;;;;;19.38;8.73;;;;;;;;;;5009941;28;20104;-76
2023/08/12 08:37:54;;;;;;;17.55;8.60;;;;;;;;;;5010139;28;20469;-76
2023/08/12 08:40:19;;;;;;;17.85;8.52;;;;;;;;;;5009690;28;20053;-76
2023/08/12 08:42:46;;;;;;;20.08;9.32;;;;;;;;;;5009772;28;20088;-76
2023/08/12 08:45:13;;;;;;;20.20;8.93;;;;;;;;;;4998008;28;20026;-76
2023/08/12 08:47:38;;;;;;;24.33;10.32;;;;;;;;;;4976688;28;20054;-76
2023/08/12 08:50:05;;;;;;;19.38;10.00;;;;;;;;;;4991226;28;20061;-76
2023/08/12 08:52:31;;;;;;;28.02;12.23;;;;;;;;;;4994314;28;20034;-76
2023/08/12 08:54:57;;;;;;;15.93;8.57;;;;;;;;;;4989462;28;20027;-76
2023/08/12 08:57:23;;;;;;;18.85;8.75;;;;;;;;;;4973415;28;20023;-76
2023/08/12 08:59:48;;;;;;;21.08;10.50;;;;;;;;;;4993453;28;20026;-76
2023/08/12 09:02:17;;;;;;;24.17;11.15;;;;;;;;;;5011357;28;20085;-77
2023/08/12 09:04:44;;;;;;;27.80;11.77;;;;;;;;;;4985158;28;20022;-77
2023/08/12 09:07:10;;;;;;;15.88;7.68;;;;;;;;;;5011898;28;20424;-77
2023/08/12 09:09:36;;;;;;;13.20;6.55;;;;;;;;;;5010798;28;20495;-76
2023/08/12 09:12:01;;;;;;;16.63;8.48;;;;;;;;;;5009640;28;20034;-76
2023/08/12 09:14:27;;;;;;;15.80;8.60;;;;;;;;;;4994553;28;20032;-77
2023/08/12 09:16:52;;;;;;;13.93;6.95;;;;;;;;;;5010553;28;20026;-76
2023/08/12 09:19:17;;;;;;;13.30;6.57;;;;;;;;;;5010800;28;20061;-77
2023/08/12 09:21:43;;;;;;;15.07;6.90;;;;;;;;;;5011938;28;20030;-77
2023/08/12 09:24:08;;;;;;;13.73;6.03;;;;;;;;;;5013148;28;20038;-77
2023/08/12 09:26:34;;;;;;;12.18;7.15;;;;;;;;;;5013621;28;20018;-78
2023/08/12 09:29:00;;;;;;;10.90;6.07;;;;;;;;;;5010542;28;20030;-75
2023/08/12 09:31:29;;;;;;;16.45;7.15;;;;;;;;;;4989391;23;20064;-77
2023/08/12 09:34:12;;;;;;;12.43;5.75;;;;;;;;;;4991892;28;20023;-77
2023/08/12 09:36:38;;;;;;;9.85;5.38;;;;;;;;;;4995057;28;20105;-77
2023/08/12 09:39:08;;;;;;;15.07;6.80;;;;;;;;;;4998448;28;20061;-77
2023/08/12 09:41:34;;;;;;;9.25;5.05;;;;;;;;;;4996551;28;20033;-77
2023/08/12 09:44:01;;;;;;;13.73;5.78;;;;;;;;;;4995673;28;20392;-77
2023/08/12 09:46:27;;;;;;;9.88;5.82;;;;;;;;;;4993088;28;20442;-77
2023/08/12 09:48:53;;;;;;;10.70;6.32;;;;;;;;;;4993246;28;20053;-75
2023/08/12 09:51:21;;;;;;;13.90;7.10;;;;;;;;;;4977675;28;20400;-74
2023/08/12 09:53:48;;;;;;;12.43;6.57;;;;;;;;;;4973750;28;20037;-73
2023/08/12 09:56:17;;;;;;;12.70;6.97;;;;;;;;;;4973156;28;20033;-75
2023/08/12 09:58:44;;;;;;;19.08;8.02;;;;;;;;;;4972414;28;20399;-75
2023/08/12 10:01:10;;;;;;;14.70;8.27;;;;;;;;;;4972155;28;20030;-76
2023/08/12 10:03:36;;;;;;;14.10;7.47;;;;;;;;;;4972280;28;20031;-76
2023/08/12 10:06:03;;;;;;;11.98;6.20;;;;;;;;;;4969982;28;20029;-76
2023/08/12 10:08:28;;;;;;;15.13;7.93;;;;;;;;;;4975523;28;20022;-76
2023/08/12 10:10:54;;;;;;;13.20;6.60;;;;;;;;;;4975358;28;20456;-76
2023/08/12 10:13:20;;;;;;;13.50;7.18;;;;;;;;;;4970002;28;20022;-76
2023/08/12 10:15:45;;;;;;;13.13;6.95;;;;;;;;;;4978622;28;20052;-76
2023/08/12 10:18:12;;;;;;;16.05;6.82;;;;;;;;;;4995026;28;20029;-76
2023/08/12 10:20:38;;;;;;;19.30;7.35;;;;;;;;;;4994561;28;20393;-75
2023/08/12 10:23:04;;;;;;;12.43;6.35;;;;;;;;;;4994198;28;20057;-76
2023/08/12 10:25:32;;;;;;;16.13;7.03;;;;;;;;;;4994468;28;20034;-76
2023/08/12 10:27:57;;;;;;;16.42;7.70;;;;;;;;;;4995427;28;20105;-76
2023/08/12 10:30:23;;;;;;;12.10;8.23;;;;;;;;;;4994450;28;20121;-76
2023/08/12 10:32:49;;;;;;;15.20;7.15;;;;;;;;;;4993278;28;20031;-76
2023/08/12 10:35:14;;;;;;;10.30;6.35;;;;;;;;;;4994873;28;20026;-76
2023/08/12 10:37:39;;;;;;;11.10;7.03;;;;;;;;;;4995161;28;20093;-76
2023/08/12 10:40:07;;;;;;;12.20;6.70;;;;;;;;;;4995410;28;20050;-76
2023/08/12 10:42:43;;;;;;;15.43;6.93;;;;;;;;;;4988455;23;20133;-76
2023/08/12 10:45:12;;;;;;;10.27;5.60;;;;;;;;;;4990829;28;20054;-76
2023/08/12 10:47:40;;;;;;;10.52;6.00;;;;;;;;;;4974476;28;20404;-76
2023/08/12 10:50:06;;;;;;;12.23;6.00;;;;;;;;;;4974931;28;20065;-77
2023/08/12 10:52:32;;;;;;;11.32;6.13;;;;;;;;;;4975744;28;20054;-77
2023/08/12 10:55:20;;;;;;;13.70;6.15;;;;;;;;;;4958157;28;20034;-76
2023/08/12 10:57:46;;;;;;;13.30;7.15;;;;;;;;;;4973889;28;20030;-77
2023/08/12 11:00:16;;;;;;;11.52;5.82;;;;;;;;;;4974433;28;20404;-76
2023/08/12 11:03:00;;;;;;;14.75;7.43;;;;;;;;;;4973785;28;20019;-76
2023/08/12 11:05:36;;;;;;;11.55;7.10;;;;;;;;;;4974653;28;20555;-76
2023/08/12 11:08:03;;;;;;;15.45;7.30;;;;;;;;;;4973779;28;20037;-76
2023/08/12 11:10:30;;;;;;;17.80;8.38;;;;;;;;;;4974018;28;20023;-76
2023/08/12 11:12:57;;;;;;;20.80;11.55;;;;;;;;;;4963720;28;20030;-76
2023/08/12 11:15:31;;;;;;;20.55;10.57;;;;;;;;;;4973896;28;20517;-76
2023/08/12 11:17:56;;;;;;;23.23;9.48;;;;;;;;;;4973586;28;20484;-77
2023/08/12 11:20:22;;;;;;;20.63;9.82;;;;;;;;;;4973554;28;20023;-76
2023/08/12 11:22:47;;;;;;;16.65;10.93;;;;;;;;;;4973264;28;20093;-76
2023/08/12 11:25:13;;;;;;;13.82;8.02;;;;;;;;;;4974578;28;20034;-76
2023/08/12 11:27:43;;;;;;;19.65;9.35;;;;;;;;;;4973629;28;20029;-76
2023/08/12 11:30:11;;;;;;;16.10;9.27;;;;;;;;;;4973252;28;20026;-76
2023/08/12 11:32:37;;;;;;;18.75;9.85;;;;;;;;;;4974943;28;20574;-76
2023/08/12 11:35:05;;;;;;;17.08;7.43;;;;;;;;;;4973937;28;20535;-76
2023/08/12 11:37:31;;;;;;;17.45;10.00;;;;;;;;;;4971749;28;20077;-76
2023/08/12 11:39:56;;;;;;;18.33;9.40;;;;;;;;;;4973258;28;20027;-76
2023/08/12 11:42:21;;;;;;;19.30;9.45;;;;;;;;;;4974620;28;20038;-76
2023/08/12 11:44:47;;;;;;;15.27;8.50;;;;;;;;;;4973578;28;20397;-76
2023/08/12 11:47:12;;;;;;;17.10;9.00;;;;;;;;;;4974151;28;20037;-76
2023/08/12 11:49:39;;;;;;;19.00;10.90;;;;;;;;;;4973752;28;20026;-76
2023/08/12 11:52:05;;;;;;;15.52;8.07;;;;;;;;;;4972800;28;20085;-76
2023/08/12 11:54:31;;;;;;;19.00;9.27;;;;;;;;;;4972885;28;20039;-76
2023/08/12 11:56:57;;;;;;;17.65;9.85;;;;;;;;;;4972494;28;20117;-77
2023/08/12 11:59:22;;;;;;;15.23;8.30;;;;;;;;;;4973128;28;20034;-75
2023/08/12 12:01:51;;;;;;;14.93;8.88;;;;;;;;;;4972348;28;20031;-77
2023/08/12 12:04:19;;;;;;;19.73;9.75;;;;;;;;;;4972784;28;20077;-75
2023/08/12 12:06:45;;;;;;;21.58;8.73;;;;;;;;;;4972932;28;20026;-76
2023/08/12 12:09:11;;;;;;;17.80;9.73;;;;;;;;;;4972079;28;20080;-76
2023/08/12 12:11:36;;;;;;;18.98;10.00;;;;;;;;;;4972759;28;20106;-76
2023/08/12 12:14:08;;;;;;;17.17;8.45;;;;;;;;;;4973681;28;20070;-76
2023/08/12 12:16:39;;;;;;;18.35;8.73;;;;;;;;;;4973943;28;20030;-75
2023/08/12 12:19:05;;;;;;;15.52;8.05;;;;;;;;;;4972062;28;20023;-76
2023/08/12 12:21:38;;;;;;;14.85;6.50;;;;;;;;;;4972617;28;20044;-76
2023/08/12 12:24:04;;;;;;;17.52;8.48;;;;;;;;;;4973023;28;20034;-76
2023/08/12 12:26:29;;;;;;;18.20;8.13;;;;;;;;;;4972539;28;20019;-76
2023/08/12 12:28:54;;;;;;;14.82;6.78;;;;;;;;;;4973665;28;20046;-76
2023/08/12 12:31:19;;;;;;;14.68;7.50;;;;;;;;;;4971271;28;20158;-76
2023/08/12 12:33:45;;;;;;;10.90;5.13;;;;;;;;;;4971988;28;20361;-76
2023/08/12 12:36:10;;;;;;;17.50;6.80;;;;;;;;;;4973211;28;20026;-76
2023/08/12 12:38:35;;;;;;;11.80;7.15;;;;;;;;;;4972575;28;20106;-76
2023/08/12 12:41:01;;;;;;;14.25;7.40;;;;;;;;;;4987606;28;20037;-76
2023/08/12 12:43:26;;;;;;;13.50;7.90;;;;;;;;;;4973000;28;20078;-76
2023/08/12 12:45:51;;;;;;;20.92;8.70;;;;;;;;;;4972153;28;20027;-76
2023/08/12 12:48:16;;;;;;;14.82;7.90;;;;;;;;;;4972953;28;20027;-77
2023/08/12 12:50:42;;;;;;;16.25;7.82;;;;;;;;;;4973318;28;20101;-76
2023/08/12 12:53:07;;;;;;;15.32;7.97;;;;;;;;;;4980553;28;20034;-76
2023/08/12 12:55:32;;;;;;;15.60;8.45;;;;;;;;;;4988046;28;20039;-77
2023/08/12 12:57:58;;;;;;;22.33;8.85;;;;;;;;;;4986352;28;20548;-77
2023/08/12 13:00:23;;;;;;;18.10;8.23;;;;;;;;;;4958330;28;20031;-77
2023/08/12 13:02:48;;;;;;;18.27;9.52;;;;;;;;;;4958243;28;20027;-77
2023/08/12 13:05:13;;;;;;;17.48;9.50;;;;;;;;;;4974233;28;20485;-77
2023/08/12 13:07:39;;;;;;;20.95;10.50;;;;;;;;;;4974038;28;20102;-77
2023/08/12 13:10:04;;;;;;;24.10;10.57;;;;;;;;;;4973478;28;20397;-76
2023/08/12 13:12:29;;;;;;;23.23;11.10;;;;;;;;;;4972014;28;20030;-76
2023/08/12 13:14:55;;;;;;;19.35;10.02;;;;;;;;;;4972926;28;20050;-76
2023/08/12 13:17:20;;;;;;;20.50;10.60;;;;;;;;;;4972870;28;20023;-76
2023/08/12 13:19:45;;;;;;;18.48;9.77;;;;;;;;;;4971615;28;20019;-76
2023/08/12 13:22:11;;;;;;;21.17;9.82;;;;;;;;;;4972105;28;20022;-76
2023/08/12 13:24:36;;;;;;;23.27;11.35;;;;;;;;;;4971696;28;20030;-76
2023/08/12 13:27:01;;;;;;;23.45;11.43;;;;;;;;;;4971568;28;20031;-76
2023/08/12 13:29:26;;;;;;;20.90;9.43;;;;;;;;;;4972804;28;20027;-76
2023/08/12 13:31:52;;;;;;;17.55;9.20;;;;;;;;;;4968115;28;20061;-76
2023/08/12 13:34:17;;;;;;;15.32;8.77;;;;;;;;;;4971433;28;20031;-76
2023/08/12 13:36:42;;;;;;;27.25;11.77;;;;;;;;;;4987967;28;20038;-75
2023/08/12 13:39:08;;;;;;;23.85;10.02;;;;;;;;;;4988724;28;20038;-75
2023/08/12 13:41:33;;;;;;;21.77;9.40;;;;;;;;;;4972082;28;20392;-75
2023/08/12 13:43:58;;;;;;;20.52;11.23;;;;;;;;;;4976984;28;20077;-75
2023/08/12 13:46:23;;;;;;;17.65;9.48;;;;;;;;;;4975510;28;20310;-75
2023/08/12 13:48:49;;;;;;;18.05;8.93;;;;;;;;;;4976252;28;20034;-75
2023/08/12 13:51:14;;;;;;;19.88;9.57;;;;;;;;;;4975485;28;20034;-75
2023/08/12 13:53:39;;;;;;;14.82;7.95;;;;;;;;;;4975383;28;20026;-75
2023/08/12 13:56:05;;;;;;;15.27;8.00;;;;;;;;;;4975899;28;20500;-75
2023/08/12 13:58:30;;;;;;;14.13;7.22;;;;;;;;;;4977502;28;20030;-75
2023/08/12 14:00:55;;;;;;;16.52;8.20;;;;;;;;;;4977615;28;20019;-75
2023/08/12 14:03:20;;;;;;;14.23;6.82;;;;;;;;;;4972385;28;20042;-75
2023/08/12 14:05:46;;;;;;;16.42;8.32;;;;;;;;;;4959805;28;20038;-75
2023/08/12 14:08:11;;;;;;;14.68;6.53;;;;;;;;;;4960213;28;20449;-76
2023/08/12 14:10:36;;;;;;;16.40;7.47;;;;;;;;;;4976722;28;20026;-75
2023/08/12 14:13:04;;;;;;;18.77;7.55;;;;;;;;;;4976103;28;20038;-76